sensor_id;sensor_type;location;lat;lon;timestamp;pressure;altitude;pressure_sealevel;temperature
28905;BMP280;60848;53.884;11.446;2023-04-25T00:02:07;100091.09;;;10.32
28905;BMP280;60848;53.884;11.446;2023-04-25T00:04:37;100097.41;;;10.31
28905;BMP280;60848;53.884;11.446;2023-04-25T00:07:06;100098.53;;;10.30
28905;BMP280;60848;53.884;11.446;2023-04-25T00:09:34;100103.41;;;10.32
28905;BMP280;60848;53.884;11.446;2023-04-25T00:12:03;100107.88;;;10.31
28905;BMP280;60848;53.884;11.446;2023-04-25T00:14:31;100110.13;;;10.33
28905;BMP280;60848;53.884;11.446;2023-04-25T00:17:02;100105.25;;;10.31
28905;BMP280;60848;53.884;11.446;2023-04-25T00:19:31;100107.88;;;10.31
28905;BMP280;60848;53.884;11.446;2023-04-25T00:22:01;100101.13;;;10.27
28905;BMP280;60848;53.884;11.446;2023-04-25T00:24:29;100115.69;;;10.28
28905;BMP280;60848;53.884;11.446;2023-04-25T00:26:57;100117.22;;;10.29
28905;BMP280;60848;53.884;11.446;2023-04-25T00:29:25;100115.31;;;10.29
28905;BMP280;60848;53.884;11.446;2023-04-25T00:31:54;100125.78;;;10.29
28905;BMP280;60848;53.884;11.446;2023-04-25T00:34:22;100122.44;;;10.29
28905;BMP280;60848;53.884;11.446;2023-04-25T00:36:50;100120.53;;;10.29
28905;BMP280;60848;53.884;11.446;2023-04-25T00:39:20;100120.22;;;10.31
28905;BMP280;60848;53.884;11.446;2023-04-25T00:41:48;100121.69;;;10.32
28905;BMP280;60848;53.884;11.446;2023-04-25T00:44:20;100127.28;;;10.30
28905;BMP280;60848;53.884;11.446;2023-04-25T00:46:48;100123.16;;;10.29
28905;BMP280;60848;53.884;11.446;2023-04-25T00:49:17;100126.16;;;10.28
28905;BMP280;60848;53.884;11.446;2023-04-25T00:51:45;100126.16;;;10.28
28905;BMP280;60848;53.884;11.446;2023-04-25T00:54:13;100128.38;;;10.22
28905;BMP280;60848;53.884;11.446;2023-04-25T00:56:43;100120.91;;;10.21
28905;BMP280;60848;53.884;11.446;2023-04-25T00:59:12;100124.66;;;10.23
28905;BMP280;60848;53.884;11.446;2023-04-25T01:01:41;100129.88;;;10.23
28905;BMP280;60848;53.884;11.446;2023-04-25T01:04:11;100121.28;;;10.23
28905;BMP280;60848;53.884;11.446;2023-04-25T01:06:40;100127.25;;;10.23
28905;BMP280;60848;53.884;11.446;2023-04-25T01:09:08;100126.50;;;10.23
28905;BMP280;60848;53.884;11.446;2023-04-25T01:11:37;100121.63;;;10.25
28905;BMP280;60848;53.884;11.446;2023-04-25T01:14:08;100126.84;;;10.25
28905;BMP280;60848;53.884;11.446;2023-04-25T01:16:36;100122.38;;;10.25
28905;BMP280;60848;53.884;11.446;2023-04-25T01:19:06;100126.53;;;10.26
28905;BMP280;60848;53.884;11.446;2023-04-25T01:21:39;100123.91;;;10.26
28905;BMP280;60848;53.884;11.446;2023-04-25T01:24:07;100130.28;;;10.29
28905;BMP280;60848;53.884;11.446;2023-04-25T01:26:36;100126.53;;;10.30
28905;BMP280;60848;53.884;11.446;2023-04-25T01:32:51;100128.75;;;10.28
28905;BMP280;60848;53.884;11.446;2023-04-25T01:35:20;100126.53;;;10.26
28905;BMP280;60848;53.884;11.446;2023-04-25T01:37:53;100130.22;;;10.25
28905;BMP280;60848;53.884;11.446;2023-04-25T01:40:21;100128.03;;;10.24
28905;BMP280;60848;53.884;11.446;2023-04-25T01:42:51;100133.63;;;10.22
28905;BMP280;60848;53.884;11.446;2023-04-25T01:45:20;100131.34;;;10.21
28905;BMP280;60848;53.884;11.446;2023-04-25T01:47:48;100141.78;;;10.17
28905;BMP280;60848;53.884;11.446;2023-04-25T01:50:18;100143.28;;;10.18
28905;BMP280;60848;53.884;11.446;2023-04-25T01:52:46;100146.63;;;10.19
28905;BMP280;60848;53.884;11.446;2023-04-25T01:55:16;100145.88;;;10.15
28905;BMP280;60848;53.884;11.446;2023-04-25T01:57:44;100147.34;;;10.05
28905;BMP280;60848;53.884;11.446;2023-04-25T02:00:13;100150.34;;;10.04
28905;BMP280;60848;53.884;11.446;2023-04-25T02:02:41;100156.66;;;9.99
28905;BMP280;60848;53.884;11.446;2023-04-25T02:05:10;100155.50;;;9.93
28905;BMP280;60848;53.884;11.446;2023-04-25T02:07:38;100152.53;;;9.91
28905;BMP280;60848;53.884;11.446;2023-04-25T02:13:48;100156.91;;;9.77
28905;BMP280;60848;53.884;11.446;2023-04-25T02:16:17;100162.13;;;9.73
28905;BMP280;60848;53.884;11.446;2023-04-25T02:18:45;100159.13;;;9.71
28905;BMP280;60848;53.884;11.446;2023-04-25T02:21:14;100158.38;;;9.71
28905;BMP280;60848;53.884;11.446;2023-04-25T02:23:42;100159.88;;;9.68
28905;BMP280;60848;53.884;11.446;2023-04-25T02:26:12;100161.34;;;9.69
28905;BMP280;60848;53.884;11.446;2023-04-25T02:28:41;100170.31;;;9.68
28905;BMP280;60848;53.884;11.446;2023-04-25T02:31:10;100170.66;;;9.67
28905;BMP280;60848;53.884;11.446;2023-04-25T02:33:39;100166.19;;;9.67
28905;BMP280;60848;53.884;11.446;2023-04-25T02:36:07;100175.16;;;9.70
28905;BMP280;60848;53.884;11.446;2023-04-25T02:38:35;100174.78;;;9.68
28905;BMP280;60848;53.884;11.446;2023-04-25T02:41:04;100175.88;;;9.67
28905;BMP280;60848;53.884;11.446;2023-04-25T02:43:32;100180.00;;;9.68
28905;BMP280;60848;53.884;11.446;2023-04-25T02:46:00;100172.53;;;9.66
28905;BMP280;60848;53.884;11.446;2023-04-25T02:48:30;100170.28;;;9.65
28905;BMP280;60848;53.884;11.446;2023-04-25T02:50:58;100174.38;;;9.62
28905;BMP280;60848;53.884;11.446;2023-04-25T02:53:26;100177.75;;;9.66
28905;BMP280;60848;53.884;11.446;2023-04-25T02:55:55;100164.28;;;9.61
28905;BMP280;60848;53.884;11.446;2023-04-25T02:58:25;100171.34;;;9.60
28905;BMP280;60848;53.884;11.446;2023-04-25T03:00:53;100176.94;;;9.59
28905;BMP280;60848;53.884;11.446;2023-04-25T03:03:22;100176.94;;;9.55
28905;BMP280;60848;53.884;11.446;2023-04-25T03:05:52;100176.19;;;9.55
28905;BMP280;60848;53.884;11.446;2023-04-25T03:08:20;100174.34;;;9.55
28905;BMP280;60848;53.884;11.446;2023-04-25T03:10:48;100180.25;;;9.52
28905;BMP280;60848;53.884;11.446;2023-04-25T03:47:29;100228.44;;;9.14
28905;BMP280;60848;53.884;11.446;2023-04-25T03:49:57;100234.00;;;9.13
28905;BMP280;60848;53.884;11.446;2023-04-25T03:52:27;100228.03;;;9.09
28905;BMP280;60848;53.884;11.446;2023-04-25T03:54:55;100229.06;;;9.04
28905;BMP280;60848;53.884;11.446;2023-04-25T03:57:23;100233.13;;;8.98
28905;BMP280;60848;53.884;11.446;2023-04-25T03:59:52;100225.59;;;8.93
28905;BMP280;60848;53.884;11.446;2023-04-25T04:02:20;100229.72;;;8.91
28905;BMP280;60848;53.884;11.446;2023-04-25T04:04:49;100238.22;;;8.88
28905;BMP280;60848;53.884;11.446;2023-04-25T04:07:18;100240.44;;;8.86
28905;BMP280;60848;53.884;11.446;2023-04-25T04:09:46;100244.16;;;8.85
28905;BMP280;60848;53.884;11.446;2023-04-25T04:12:15;100250.09;;;8.82
28905;BMP280;60848;53.884;11.446;2023-04-25T04:14:43;100253.41;;;8.79
28905;BMP280;60848;53.884;11.446;2023-04-25T04:17:11;100251.13;;;8.77
28905;BMP280;60848;53.884;11.446;2023-04-25T04:19:39;100256.69;;;8.72
28905;BMP280;60848;53.884;11.446;2023-04-25T04:22:09;100255.13;;;8.68
28905;BMP280;60848;53.884;11.446;2023-04-25T04:24:37;100251.44;;;8.69
28905;BMP280;60848;53.884;11.446;2023-04-25T04:27:06;100264.88;;;8.71
28905;BMP280;60848;53.884;11.446;2023-04-25T04:29:34;100256.31;;;8.74
28905;BMP280;60848;53.884;11.446;2023-04-25T04:32:03;100264.53;;;8.76
28905;BMP280;60848;53.884;11.446;2023-04-25T04:34:31;100262.06;;;8.86
28905;BMP280;60848;53.884;11.446;2023-04-25T04:37:00;100266.34;;;9.01
28905;BMP280;60848;53.884;11.446;2023-04-25T04:39:30;100266.09;;;9.17
28905;BMP280;60848;53.884;11.446;2023-04-25T04:41:58;100270.66;;;9.30
28905;BMP280;60848;53.884;11.446;2023-04-25T04:44:29;100289.47;;;9.50
28905;BMP280;60848;53.884;11.446;2023-04-25T04:46:59;100276.22;;;9.66
28905;BMP280;60848;53.884;11.446;2023-04-25T04:49:28;100292.38;;;9.82
28905;BMP280;60848;53.884;11.446;2023-04-25T04:51:57;100289.47;;;9.97
28905;BMP280;60848;53.884;11.446;2023-04-25T04:54:26;100287.69;;;10.12
28905;BMP280;60848;53.884;11.446;2023-04-25T04:56:56;100287.78;;;10.29
28905;BMP280;60848;53.884;11.446;2023-04-25T04:59:25;100290.84;;;10.45
28905;BMP280;60848;53.884;11.446;2023-04-25T05:01:53;100286.41;;;10.60
28905;BMP280;60848;53.884;11.446;2023-04-25T05:04:21;100299.53;;;10.77
28905;BMP280;60848;53.884;11.446;2023-04-25T05:06:50;100299.25;;;10.93
28905;BMP280;60848;53.884;11.446;2023-04-25T05:09:19;100291.78;;;11.09
28905;BMP280;60848;53.884;11.446;2023-04-25T05:11:47;100300.41;;;11.24
28905;BMP280;60848;53.884;11.446;2023-04-25T05:14:17;100298.16;;;11.36
28905;BMP280;60848;53.884;11.446;2023-04-25T05:16:45;100298.16;;;11.50
28905;BMP280;60848;53.884;11.446;2023-04-25T05:19:13;100296.66;;;11.60
28905;BMP280;60848;53.884;11.446;2023-04-25T05:21:42;100303.41;;;11.71
28905;BMP280;60848;53.884;11.446;2023-04-25T05:24:10;100301.13;;;11.77
28905;BMP280;60848;53.884;11.446;2023-04-25T05:26:38;100304.50;;;11.67
28905;BMP280;60848;53.884;11.446;2023-04-25T05:29:06;100307.50;;;11.55
28905;BMP280;60848;53.884;11.446;2023-04-25T05:31:36;100303.41;;;11.43
28905;BMP280;60848;53.884;11.446;2023-04-25T05:34:05;100308.63;;;11.33
28905;BMP280;60848;53.884;11.446;2023-04-25T05:36:33;100310.13;;;11.27
28905;BMP280;60848;53.884;11.446;2023-04-25T05:39:01;100306.78;;;11.33
28905;BMP280;60848;53.884;11.446;2023-04-25T05:41:31;100304.53;;;11.25
28905;BMP280;60848;53.884;11.446;2023-04-25T05:44:06;100309.00;;;11.17
28905;BMP280;60848;53.884;11.446;2023-04-25T05:46:36;100309.75;;;11.11
28905;BMP280;60848;53.884;11.446;2023-04-25T05:49:04;100313.81;;;11.01
28905;BMP280;60848;53.884;11.446;2023-04-25T05:51:32;100316.38;;;10.84
28905;BMP280;60848;53.884;11.446;2023-04-25T05:54:00;100319.69;;;10.63
28905;BMP280;60848;53.884;11.446;2023-04-25T05:56:29;100311.44;;;10.54
28905;BMP280;60848;53.884;11.446;2023-04-25T05:58:57;100312.91;;;10.51
28905;BMP280;60848;53.884;11.446;2023-04-25T06:01:25;100328.19;;;10.46
28905;BMP280;60848;53.884;11.446;2023-04-25T06:03:55;100333.41;;;10.46
28905;BMP280;60848;53.884;11.446;2023-04-25T06:06:24;100333.81;;;10.48
28905;BMP280;60848;53.884;11.446;2023-04-25T06:08:53;100330.09;;;10.52
28905;BMP280;60848;53.884;11.446;2023-04-25T06:11:22;100327.97;;;10.79
28905;BMP280;60848;53.884;11.446;2023-04-25T06:13:50;100330.66;;;11.04
28905;BMP280;60848;53.884;11.446;2023-04-25T06:16:20;100332.91;;;11.12
28905;BMP280;60848;53.884;11.446;2023-04-25T06:18:48;100333.28;;;11.11
28905;BMP280;60848;53.884;11.446;2023-04-25T06:21:18;100339.25;;;11.04
28905;BMP280;60848;53.884;11.446;2023-04-25T06:23:46;100334.38;;;10.99
28905;BMP280;60848;53.884;11.446;2023-04-25T06:26:16;100342.94;;;10.89
28905;BMP280;60848;53.884;11.446;2023-04-25T06:28:44;100345.91;;;10.84
28905;BMP280;60848;53.884;11.446;2023-04-25T06:31:12;100348.47;;;10.70
28905;BMP280;60848;53.884;11.446;2023-04-25T06:33:40;100342.44;;;10.59
28905;BMP280;60848;53.884;11.446;2023-04-25T06:36:09;100347.66;;;10.55
28905;BMP280;60848;53.884;11.446;2023-04-25T06:38:38;100348.78;;;10.54
28905;BMP280;60848;53.884;11.446;2023-04-25T06:41:07;100342.03;;;10.46
28905;BMP280;60848;53.884;11.446;2023-04-25T06:43:35;100339.72;;;10.41
28905;BMP280;60848;53.884;11.446;2023-04-25T06:46:03;100339.78;;;10.52
28905;BMP280;60848;53.884;11.446;2023-04-25T06:48:32;100351.56;;;10.93
28905;BMP280;60848;53.884;11.446;2023-04-25T06:51:00;100344.16;;;11.23
28905;BMP280;60848;53.884;11.446;2023-04-25T06:53:28;100346.38;;;11.42
28905;BMP280;60848;53.884;11.446;2023-04-25T06:55:58;100340.81;;;11.58
28905;BMP280;60848;53.884;11.446;2023-04-25T06:58:26;100330.72;;;11.63
28905;BMP280;60848;53.884;11.446;2023-04-25T07:00:54;100339.69;;;11.69
28905;BMP280;60848;53.884;11.446;2023-04-25T07:03:23;100343.81;;;11.77
28905;BMP280;60848;53.884;11.446;2023-04-25T07:05:52;100352.03;;;11.83
28905;BMP280;60848;53.884;11.446;2023-04-25T07:08:23;100339.31;;;11.81
28905;BMP280;60848;53.884;11.446;2023-04-25T07:10:51;100346.44;;;11.77
28905;BMP280;60848;53.884;11.446;2023-04-25T07:13:20;100351.28;;;11.72
28905;BMP280;60848;53.884;11.446;2023-04-25T07:15:49;100353.53;;;11.63
28905;BMP280;60848;53.884;11.446;2023-04-25T07:18:17;100358.75;;;11.52
28905;BMP280;60848;53.884;11.446;2023-04-25T07:20:45;100360.63;;;11.41
28905;BMP280;60848;53.884;11.446;2023-04-25T07:23:13;100360.97;;;11.29
28905;BMP280;60848;53.884;11.446;2023-04-25T07:25:42;100358.34;;;11.15
28905;BMP280;60848;53.884;11.446;2023-04-25T07:28:10;100363.59;;;11.12
28905;BMP280;60848;53.884;11.446;2023-04-25T07:30:42;100366.91;;;11.09
28905;BMP280;60848;53.884;11.446;2023-04-25T07:33:11;100369.53;;;11.02
28905;BMP280;60848;53.884;11.446;2023-04-25T07:35:39;100384.84;;;11.00
28905;BMP280;60848;53.884;11.446;2023-04-25T07:38:07;100392.31;;;10.98
28905;BMP280;60848;53.884;11.446;2023-04-25T07:40:37;100392.28;;;10.94
28905;BMP280;60848;53.884;11.446;2023-04-25T07:43:05;100393.03;;;10.91
28905;BMP280;60848;53.884;11.446;2023-04-25T07:45:33;100391.13;;;10.85
28905;BMP280;60848;53.884;11.446;2023-04-25T07:48:03;100392.59;;;10.79
28905;BMP280;60848;53.884;11.446;2023-04-25T07:50:32;100389.59;;;10.73
28905;BMP280;60848;53.884;11.446;2023-04-25T07:53:00;100398.91;;;10.70
28905;BMP280;60848;53.884;11.446;2023-04-25T07:55:29;100401.50;;;10.67
28905;BMP280;60848;53.884;11.446;2023-04-25T07:57:57;100387.25;;;10.57
28905;BMP280;60848;53.884;11.446;2023-04-25T08:00:25;100395.44;;;10.49
28905;BMP280;60848;53.884;11.446;2023-04-25T08:02:53;100389.78;;;10.40
28905;BMP280;60848;53.884;11.446;2023-04-25T08:05:23;100397.22;;;10.41
28905;BMP280;60848;53.884;11.446;2023-04-25T08:07:52;100402.16;;;10.46
28905;BMP280;60848;53.884;11.446;2023-04-25T08:10:20;100398.44;;;10.51
28905;BMP280;60848;53.884;11.446;2023-04-25T08:12:49;100406.72;;;10.63
28905;BMP280;60848;53.884;11.446;2023-04-25T08:15:18;100406.06;;;10.81
28905;BMP280;60848;53.884;11.446;2023-04-25T08:17:46;100403.50;;;10.95
28905;BMP280;60848;53.884;11.446;2023-04-25T08:20:15;100405.03;;;11.03
28905;BMP280;60848;53.884;11.446;2023-04-25T08:22:44;100417.78;;;11.11
28905;BMP280;60848;53.884;11.446;2023-04-25T08:25:13;100403.59;;;11.26
28905;BMP280;60848;53.884;11.446;2023-04-25T08:27:41;100414.47;;;11.42
28905;BMP280;60848;53.884;11.446;2023-04-25T08:30:10;100414.47;;;11.49
28905;BMP280;60848;53.884;11.446;2023-04-25T08:32:38;100408.53;;;11.59
28905;BMP280;60848;53.884;11.446;2023-04-25T08:35:07;100407.44;;;11.64
28905;BMP280;60848;53.884;11.446;2023-04-25T08:37:36;100414.50;;;11.67
28905;BMP280;60848;53.884;11.446;2023-04-25T08:40:07;100417.88;;;11.67
28905;BMP280;60848;53.884;11.446;2023-04-25T08:42:39;100421.63;;;11.59
28905;BMP280;60848;53.884;11.446;2023-04-25T08:45:09;100416.72;;;11.44
28905;BMP280;60848;53.884;11.446;2023-04-25T08:47:38;100437.66;;;11.40
28905;BMP280;60848;53.884;11.446;2023-04-25T08:50:08;100431.66;;;11.36
28905;BMP280;60848;53.884;11.446;2023-04-25T08:52:39;100443.59;;;11.23
28905;BMP280;60848;53.884;11.446;2023-04-25T08:55:13;100440.56;;;11.07
28905;BMP280;60848;53.884;11.446;2023-04-25T08:57:42;100446.13;;;11.02
28905;BMP280;60848;53.884;11.446;2023-04-25T09:00:11;100455.09;;;10.98
28905;BMP280;60848;53.884;11.446;2023-04-25T09:02:40;100455.41;;;10.89
28905;BMP280;60848;53.884;11.446;2023-04-25T09:05:12;100452.06;;;10.92
28905;BMP280;60848;53.884;11.446;2023-04-25T09:07:40;100462.94;;;10.98
28905;BMP280;60848;53.884;11.446;2023-04-25T09:10:09;100462.97;;;11.01
28905;BMP280;60848;53.884;11.446;2023-04-25T09:12:39;100459.97;;;11.03
28905;BMP280;60848;53.884;11.446;2023-04-25T09:15:08;100479.41;;;11.05
28905;BMP280;60848;53.884;11.446;2023-04-25T09:17:41;100471.97;;;11.04
28905;BMP280;60848;53.884;11.446;2023-04-25T09:20:13;100464.44;;;11.02
28905;BMP280;60848;53.884;11.446;2023-04-25T09:22:41;100482.75;;;10.95
28905;BMP280;60848;53.884;11.446;2023-04-25T09:25:11;100476.75;;;10.95
28905;BMP280;60848;53.884;11.446;2023-04-25T09:27:50;100478.59;;;10.91
28905;BMP280;60848;53.884;11.446;2023-04-25T09:30:26;100487.19;;;10.91
28905;BMP280;60848;53.884;11.446;2023-04-25T09:32:56;100485.38;;;10.95
28905;BMP280;60848;53.884;11.446;2023-04-25T09:35:26;100483.53;;;11.03
28905;BMP280;60848;53.884;11.446;2023-04-25T09:37:55;100493.34;;;11.20
28905;BMP280;60848;53.884;11.446;2023-04-25T09:40:24;100489.69;;;11.42
28905;BMP280;60848;53.884;11.446;2023-04-25T09:42:54;100474.78;;;11.70
28905;BMP280;60848;53.884;11.446;2023-04-25T09:45:22;100477.06;;;11.96
28905;BMP280;60848;53.884;11.446;2023-04-25T09:47:52;100478.91;;;12.10
28905;BMP280;60848;53.884;11.446;2023-04-25T09:50:24;100471.41;;;12.15
28905;BMP280;60848;53.884;11.446;2023-04-25T09:53:02;100477.78;;;12.11
28905;BMP280;60848;53.884;11.446;2023-04-25T09:55:36;100480.03;;;12.09
28905;BMP280;60848;53.884;11.446;2023-04-25T09:58:07;100484.53;;;11.98
28905;BMP280;60848;53.884;11.446;2023-04-25T10:00:37;100488.66;;;11.92
28905;BMP280;60848;53.884;11.446;2023-04-25T10:03:05;100492.00;;;11.85
28905;BMP280;60848;53.884;11.446;2023-04-25T10:05:34;100489.41;;;11.78
28905;BMP280;60848;53.884;11.446;2023-04-25T10:08:04;100494.59;;;11.75
28905;BMP280;60848;53.884;11.446;2023-04-25T10:10:33;100482.66;;;11.70
28905;BMP280;60848;53.884;11.446;2023-04-25T10:13:07;100494.97;;;11.63
28905;BMP280;60848;53.884;11.446;2023-04-25T10:15:36;100502.44;;;11.61
28905;BMP280;60848;53.884;11.446;2023-04-25T10:18:06;100497.53;;;11.52
28905;BMP280;60848;53.884;11.446;2023-04-25T10:20:37;100509.53;;;11.53
28905;BMP280;60848;53.884;11.446;2023-04-25T10:23:08;100511.78;;;11.55
28905;BMP280;60848;53.884;11.446;2023-04-25T10:25:40;100513.63;;;11.54
28905;BMP280;60848;53.884;11.446;2023-04-25T10:28:10;100526.69;;;11.51
28905;BMP280;60848;53.884;11.446;2023-04-25T10:30:44;100527.09;;;11.46
28905;BMP280;60848;53.884;11.446;2023-04-25T10:33:32;100543.84;;;11.34
28905;BMP280;60848;53.884;11.446;2023-04-25T10:36:11;100547.53;;;11.23
28905;BMP280;60848;53.884;11.446;2023-04-25T10:38:40;100537.75;;;11.13
28905;BMP280;60848;53.884;11.446;2023-04-25T10:41:11;100538.53;;;11.10
28905;BMP280;60848;53.884;11.446;2023-04-25T10:43:41;100539.25;;;11.10
28905;BMP280;60848;53.884;11.446;2023-04-25T10:46:17;100525.44;;;11.17
28905;BMP280;60848;53.884;11.446;2023-04-25T10:48:47;100528.88;;;11.31
28905;BMP280;60848;53.884;11.446;2023-04-25T10:51:19;100527.09;;;11.53
28905;BMP280;60848;53.884;11.446;2023-04-25T10:54:01;100527.94;;;11.78
28905;BMP280;60848;53.884;11.446;2023-04-25T10:56:31;100533.94;;;11.96
28905;BMP280;60848;53.884;11.446;2023-04-25T10:59:06;100530.59;;;12.06
28905;BMP280;60848;53.884;11.446;2023-04-25T11:01:39;100530.22;;;12.14
28905;BMP280;60848;53.884;11.446;2023-04-25T11:04:20;100523.84;;;12.15
28905;BMP280;60848;53.884;11.446;2023-04-25T11:07:02;100536.97;;;12.12
28905;BMP280;60848;53.884;11.446;2023-04-25T11:09:33;100544.44;;;12.10
28905;BMP280;60848;53.884;11.446;2023-04-25T11:12:02;100547.81;;;12.07
28905;BMP280;60848;53.884;11.446;2023-04-25T11:14:33;100550.44;;;12.03
28905;BMP280;60848;53.884;11.446;2023-04-25T11:17:01;100545.56;;;12.02
28905;BMP280;60848;53.884;11.446;2023-04-25T11:19:30;100558.25;;;11.89
28905;BMP280;60848;53.884;11.446;2023-04-25T11:21:59;100551.88;;;11.76
28905;BMP280;60848;53.884;11.446;2023-04-25T11:24:28;100551.84;;;11.62
28905;BMP280;60848;53.884;11.446;2023-04-25T11:26:57;100548.06;;;11.60
28905;BMP280;60848;53.884;11.446;2023-04-25T11:29:26;100548.44;;;11.55
28905;BMP280;60848;53.884;11.446;2023-04-25T11:31:56;100555.53;;;11.54
28905;BMP280;60848;53.884;11.446;2023-04-25T11:34:26;100551.44;;;11.57
28905;BMP280;60848;53.884;11.446;2023-04-25T11:36:54;100559.69;;;11.73
28905;BMP280;60848;53.884;11.446;2023-04-25T11:39:24;100560.88;;;11.86
28905;BMP280;60848;53.884;11.446;2023-04-25T11:41:52;100563.50;;;12.00
28905;BMP280;60848;53.884;11.446;2023-04-25T11:44:21;100560.91;;;12.07
28905;BMP280;60848;53.884;11.446;2023-04-25T11:46:49;100557.94;;;12.19
28905;BMP280;60848;53.884;11.446;2023-04-25T11:49:19;100565.44;;;12.24
28905;BMP280;60848;53.884;11.446;2023-04-25T11:51:49;100560.56;;;12.26
28905;BMP280;60848;53.884;11.446;2023-04-25T11:54:19;100566.56;;;12.37
28905;BMP280;60848;53.884;11.446;2023-04-25T11:56:48;100560.22;;;12.45
28905;BMP280;60848;53.884;11.446;2023-04-25T11:59:16;100571.81;;;12.55
28905;BMP280;60848;53.884;11.446;2023-04-25T12:01:48;100570.28;;;12.68
28905;BMP280;60848;53.884;11.446;2023-04-25T12:06:48;100568.75;;;12.98
28905;BMP280;60848;53.884;11.446;2023-04-25T12:09:18;100572.50;;;13.01
28905;BMP280;60848;53.884;11.446;2023-04-25T12:11:52;100571.34;;;13.12
28905;BMP280;60848;53.884;11.446;2023-04-25T12:14:21;100584.09;;;13.10
28905;BMP280;60848;53.884;11.446;2023-04-25T12:16:51;100593.13;;;12.99
28905;BMP280;60848;53.884;11.446;2023-04-25T12:19:19;100590.91;;;12.83
28905;BMP280;60848;53.884;11.446;2023-04-25T12:21:50;100605.50;;;12.70
28905;BMP280;60848;53.884;11.446;2023-04-25T12:24:22;100611.91;;;12.55
28905;BMP280;60848;53.884;11.446;2023-04-25T12:26:55;100610.38;;;12.37
28905;BMP280;60848;53.884;11.446;2023-04-25T12:29:28;100608.47;;;12.16
28905;BMP280;60848;53.884;11.446;2023-04-25T12:32:04;100617.06;;;11.99
28905;BMP280;60848;53.884;11.446;2023-04-25T12:34:33;100613.28;;;11.89
28905;BMP280;60848;53.884;11.446;2023-04-25T12:37:04;100618.13;;;11.87
28905;BMP280;60848;53.884;11.446;2023-04-25T12:39:32;100620.44;;;12.03
28905;BMP280;60848;53.884;11.446;2023-04-25T12:42:07;100625.75;;;12.31
28905;BMP280;60848;53.884;11.446;2023-04-25T12:44:39;100616.00;;;12.46
28905;BMP280;60848;53.884;11.446;2023-04-25T12:47:08;100617.13;;;12.34
28905;BMP280;60848;53.884;11.446;2023-04-25T12:49:37;100616.72;;;12.18
28905;BMP280;60848;53.884;11.446;2023-04-25T12:52:06;100606.22;;;12.00
28905;BMP280;60848;53.884;11.446;2023-04-25T12:54:35;100599.78;;;11.87
28905;BMP280;60848;53.884;11.446;2023-04-25T12:57:03;100605.03;;;11.80
28905;BMP280;60848;53.884;11.446;2023-04-25T12:59:31;100611.00;;;11.74
28905;BMP280;60848;53.884;11.446;2023-04-25T13:02:00;100611.31;;;11.65
28905;BMP280;60848;53.884;11.446;2023-04-25T13:04:28;100615.06;;;11.64
28905;BMP280;60848;53.884;11.446;2023-04-25T13:06:57;100618.06;;;11.66
28905;BMP280;60848;53.884;11.446;2023-04-25T13:09:27;100612.50;;;11.71
28905;BMP280;60848;53.884;11.446;2023-04-25T13:11:55;100621.88;;;11.83
28905;BMP280;60848;53.884;11.446;2023-04-25T13:14:25;100625.28;;;11.97
28905;BMP280;60848;53.884;11.446;2023-04-25T13:16:53;100616.72;;;12.11
28905;BMP280;60848;53.884;11.446;2023-04-25T13:19:22;100617.13;;;12.20
28905;BMP280;60848;53.884;11.446;2023-04-25T13:21:50;100624.25;;;12.23
28905;BMP280;60848;53.884;11.446;2023-04-25T13:24:18;100626.13;;;12.40
28905;BMP280;60848;53.884;11.446;2023-04-25T13:26:48;100629.88;;;12.46
28905;BMP280;60848;53.884;11.446;2023-04-25T13:29:17;100632.50;;;12.57
28905;BMP280;60848;53.884;11.446;2023-04-25T13:31:45;100631.75;;;12.60
28905;BMP280;60848;53.884;11.446;2023-04-25T13:34:13;100637.41;;;12.55
28905;BMP280;60848;53.884;11.446;2023-04-25T13:36:42;100666.59;;;12.46
28905;BMP280;60848;53.884;11.446;2023-04-25T13:39:10;100672.94;;;12.27
28905;BMP280;60848;53.884;11.446;2023-04-25T13:41:39;100666.88;;;12.09
28905;BMP280;60848;53.884;11.446;2023-04-25T13:44:10;100670.22;;;11.92
28905;BMP280;60848;53.884;11.446;2023-04-25T13:46:38;100675.75;;;11.80
28905;BMP280;60848;53.884;11.446;2023-04-25T13:49:13;100670.47;;;11.70
28905;BMP280;60848;53.884;11.446;2023-04-25T13:51:42;100681.28;;;11.65
28905;BMP280;60848;53.884;11.446;2023-04-25T13:54:10;100667.44;;;11.61
28905;BMP280;60848;53.884;11.446;2023-04-25T13:56:39;100672.63;;;11.57
28905;BMP280;60848;53.884;11.446;2023-04-25T13:59:10;100681.25;;;11.58
28905;BMP280;60848;53.884;11.446;2023-04-25T14:01:39;100677.16;;;11.60
28905;BMP280;60848;53.884;11.446;2023-04-25T14:04:08;100682.03;;;11.65
28905;BMP280;60848;53.884;11.446;2023-04-25T14:06:36;100681.72;;;11.70
28905;BMP280;60848;53.884;11.446;2023-04-25T14:09:05;100688.06;;;11.73
28905;BMP280;60848;53.884;11.446;2023-04-25T14:11:34;100682.88;;;11.76
28905;BMP280;60848;53.884;11.446;2023-04-25T14:14:02;100682.13;;;11.83
28905;BMP280;60848;53.884;11.446;2023-04-25T14:16:33;100673.56;;;11.89
28905;BMP280;60848;53.884;11.446;2023-04-25T14:19:08;100682.94;;;11.97
28905;BMP280;60848;53.884;11.446;2023-04-25T14:21:36;100685.56;;;12.01
28905;BMP280;60848;53.884;11.446;2023-04-25T14:24:04;100684.84;;;12.04
28905;BMP280;60848;53.884;11.446;2023-04-25T14:26:33;100682.97;;;12.08
28905;BMP280;60848;53.884;11.446;2023-04-25T14:29:02;100694.63;;;12.17
28905;BMP280;60848;53.884;11.446;2023-04-25T14:31:32;100685.66;;;12.22
28905;BMP280;60848;53.884;11.446;2023-04-25T14:34:01;100692.03;;;12.24
28905;BMP280;60848;53.884;11.446;2023-04-25T14:36:30;100697.66;;;12.23
28905;BMP280;60848;53.884;11.446;2023-04-25T14:39:02;100699.16;;;12.20
28905;BMP280;60848;53.884;11.446;2023-04-25T14:41:32;100698.38;;;12.16
28905;BMP280;60848;53.884;11.446;2023-04-25T14:44:00;100697.97;;;12.11